sensor_id;sensor_type;location;lat;lon;timestamp;P1;durP1;ratioP1;P2;durP2;ratioP2
23519;SDS011;11936;50.820;4.336;2022-08-25T00:02:05;6.40;;;4.63;;
23519;SDS011;11936;50.820;4.336;2022-08-25T00:04:41;8.98;;;4.40;;
23519;SDS011;11936;50.820;4.336;2022-08-25T00:07:09;6.35;;;3.67;;
23519;SDS011;11936;50.820;4.336;2022-08-25T00:10:19;11.68;;;4.20;;
23519;SDS011;11936;50.820;4.336;2022-08-25T00:16:34;6.93;;;3.60;;
23519;SDS011;11936;50.820;4.336;2022-08-25T00:19:02;16.77;;;4.60;;
23519;SDS011;11936;50.820;4.336;2022-08-25T00:21:49;4.82;;;3.65;;
23519;SDS011;11936;50.820;4.336;2022-08-25T00:24:22;10.77;;;4.20;;
23519;SDS011;11936;50.820;4.336;2022-08-25T00:27:19;7.43;;;3.75;;
23519;SDS011;11936;50.820;4.336;2022-08-25T00:29:48;9.48;;;3.85;;
23519;SDS011;11936;50.820;4.336;2022-08-25T00:32:19;7.32;;;3.78;;
23519;SDS011;11936;50.820;4.336;2022-08-25T00:34:53;12.63;;;3.95;;
23519;SDS011;11936;50.820;4.336;2022-08-25T00:37:28;6.90;;;4.63;;
23519;SDS011;11936;50.820;4.336;2022-08-25T00:39:56;5.32;;;3.60;;
23519;SDS011;11936;50.820;4.336;2022-08-25T00:42:28;11.63;;;3.83;;
23519;SDS011;11936;50.820;4.336;2022-08-25T00:44:55;9.50;;;3.50;;
23519;SDS011;11936;50.820;4.336;2022-08-25T00:47:24;8.32;;;4.70;;
23519;SDS011;11936;50.820;4.336;2022-08-25T00:49:56;4.55;;;4.13;;
23519;SDS011;11936;50.820;4.336;2022-08-25T00:55:26;5.82;;;4.00;;
23519;SDS011;11936;50.820;4.336;2022-08-25T00:58:19;5.65;;;4.00;;
23519;SDS011;11936;50.820;4.336;2022-08-25T01:00:51;5.18;;;3.80;;
23519;SDS011;11936;50.820;4.336;2022-08-25T01:03:20;9.40;;;3.88;;
23519;SDS011;11936;50.820;4.336;2022-08-25T01:05:47;8.53;;;4.13;;
23519;SDS011;11936;50.820;4.336;2022-08-25T01:08:15;10.57;;;4.20;;
23519;SDS011;11936;50.820;4.336;2022-08-25T01:10:47;7.03;;;4.32;;
23519;SDS011;11936;50.820;4.336;2022-08-25T01:13:21;14.50;;;3.83;;
23519;SDS011;11936;50.820;4.336;2022-08-25T01:15:54;8.48;;;4.50;;
23519;SDS011;11936;50.820;4.336;2022-08-25T01:20:52;13.65;;;5.35;;
23519;SDS011;11936;50.820;4.336;2022-08-25T01:23:23;9.68;;;5.68;;
23519;SDS011;11936;50.820;4.336;2022-08-25T01:26:12;8.10;;;5.82;;
23519;SDS011;11936;50.820;4.336;2022-08-25T01:28:44;6.95;;;5.13;;
23519;SDS011;11936;50.820;4.336;2022-08-25T01:31:31;6.43;;;5.00;;
23519;SDS011;11936;50.820;4.336;2022-08-25T01:33:57;13.55;;;4.88;;
23519;SDS011;11936;50.820;4.336;2022-08-25T01:36:26;9.95;;;4.57;;
23519;SDS011;11936;50.820;4.336;2022-08-25T01:39:03;8.10;;;4.20;;
23519;SDS011;11936;50.820;4.336;2022-08-25T01:44:41;13.40;;;4.45;;
23519;SDS011;11936;50.820;4.336;2022-08-25T01:47:10;9.45;;;4.55;;
23519;SDS011;11936;50.820;4.336;2022-08-25T01:49:38;6.18;;;4.88;;
23519;SDS011;11936;50.820;4.336;2022-08-25T01:54:51;10.55;;;4.70;;
23519;SDS011;11936;50.820;4.336;2022-08-25T01:57:39;5.90;;;4.03;;
23519;SDS011;11936;50.820;4.336;2022-08-25T02:00:17;7.85;;;4.57;;
23519;SDS011;11936;50.820;4.336;2022-08-25T02:02:46;7.55;;;4.65;;
23519;SDS011;11936;50.820;4.336;2022-08-25T02:05:33;5.53;;;4.13;;
23519;SDS011;11936;50.820;4.336;2022-08-25T02:08:08;6.70;;;4.65;;
23519;SDS011;11936;50.820;4.336;2022-08-25T02:10:40;7.25;;;3.85;;
23519;SDS011;11936;50.820;4.336;2022-08-25T02:13:19;10.32;;;4.28;;
23519;SDS011;11936;50.820;4.336;2022-08-25T02:15:48;6.30;;;4.05;;
23519;SDS011;11936;50.820;4.336;2022-08-25T02:18:20;5.72;;;4.10;;
23519;SDS011;11936;50.820;4.336;2022-08-25T02:20:47;6.10;;;4.18;;
23519;SDS011;11936;50.820;4.336;2022-08-25T02:23:19;8.05;;;3.90;;
23519;SDS011;11936;50.820;4.336;2022-08-25T02:25:50;6.88;;;4.90;;
23519;SDS011;11936;50.820;4.336;2022-08-25T02:28:23;5.63;;;4.53;;
23519;SDS011;11936;50.820;4.336;2022-08-25T02:30:51;9.07;;;4.30;;
23519;SDS011;11936;50.820;4.336;2022-08-25T02:33:18;9.05;;;5.30;;
23519;SDS011;11936;50.820;4.336;2022-08-25T02:35:45;12.98;;;5.20;;
23519;SDS011;11936;50.820;4.336;2022-08-25T02:38:12;8.77;;;4.93;;
23519;SDS011;11936;50.820;4.336;2022-08-25T02:40:43;14.77;;;5.13;;
23519;SDS011;11936;50.820;4.336;2022-08-25T02:43:10;5.95;;;4.85;;
23519;SDS011;11936;50.820;4.336;2022-08-25T02:45:38;12.18;;;4.63;;
23519;SDS011;11936;50.820;4.336;2022-08-25T02:48:06;8.30;;;4.85;;
23519;SDS011;11936;50.820;4.336;2022-08-25T02:50:32;11.07;;;4.55;;
23519;SDS011;11936;50.820;4.336;2022-08-25T02:52:59;6.32;;;4.20;;
23519;SDS011;11936;50.820;4.336;2022-08-25T02:55:26;13.73;;;4.60;;
23519;SDS011;11936;50.820;4.336;2022-08-25T02:57:52;7.93;;;4.43;;
23519;SDS011;11936;50.820;4.336;2022-08-25T03:00:18;5.60;;;4.00;;
23519;SDS011;11936;50.820;4.336;2022-08-25T03:02:45;9.27;;;4.00;;
23519;SDS011;11936;50.820;4.336;2022-08-25T03:05:12;8.07;;;4.35;;
23519;SDS011;11936;50.820;4.336;2022-08-25T03:07:40;7.60;;;4.18;;
23519;SDS011;11936;50.820;4.336;2022-08-25T03:10:09;6.17;;;4.20;;
23519;SDS011;11936;50.820;4.336;2022-08-25T03:12:38;10.25;;;4.70;;
23519;SDS011;11936;50.820;4.336;2022-08-25T03:15:07;11.85;;;4.55;;
23519;SDS011;11936;50.820;4.336;2022-08-25T03:17:34;10.40;;;4.57;;
23519;SDS011;11936;50.820;4.336;2022-08-25T03:20:00;10.23;;;4.38;;
23519;SDS011;11936;50.820;4.336;2022-08-25T03:22:27;4.57;;;4.07;;
23519;SDS011;11936;50.820;4.336;2022-08-25T03:24:53;10.73;;;4.03;;
23519;SDS011;11936;50.820;4.336;2022-08-25T03:27:38;7.50;;;3.80;;
23519;SDS011;11936;50.820;4.336;2022-08-25T03:30:05;6.63;;;3.63;;
23519;SDS011;11936;50.820;4.336;2022-08-25T03:32:31;8.60;;;3.60;;
23519;SDS011;11936;50.820;4.336;2022-08-25T03:34:56;3.25;;;2.90;;
23519;SDS011;11936;50.820;4.336;2022-08-25T03:37:22;8.15;;;3.92;;
23519;SDS011;11936;50.820;4.336;2022-08-25T03:39:48;8.65;;;3.50;;
23519;SDS011;11936;50.820;4.336;2022-08-25T03:42:13;16.80;;;3.65;;
23519;SDS011;11936;50.820;4.336;2022-08-25T03:44:39;4.88;;;3.33;;
23519;SDS011;11936;50.820;4.336;2022-08-25T03:47:04;4.55;;;2.78;;
23519;SDS011;11936;50.820;4.336;2022-08-25T03:49:31;6.10;;;3.20;;
23519;SDS011;11936;50.820;4.336;2022-08-25T03:51:59;6.70;;;3.78;;
23519;SDS011;11936;50.820;4.336;2022-08-25T03:54:25;5.95;;;3.10;;
23519;SDS011;11936;50.820;4.336;2022-08-25T03:56:51;5.55;;;3.30;;
23519;SDS011;11936;50.820;4.336;2022-08-25T03:59:17;6.70;;;3.13;;
23519;SDS011;11936;50.820;4.336;2022-08-25T04:04:12;4.90;;;3.13;;
23519;SDS011;11936;50.820;4.336;2022-08-25T04:06:39;6.75;;;3.25;;
23519;SDS011;11936;50.820;4.336;2022-08-25T04:09:07;10.00;;;3.13;;
23519;SDS011;11936;50.820;4.336;2022-08-25T04:11:34;5.25;;;2.65;;
23519;SDS011;11936;50.820;4.336;2022-08-25T04:14:00;6.55;;;2.78;;
23519;SDS011;11936;50.820;4.336;2022-08-25T04:16:27;9.05;;;3.75;;
23519;SDS011;11936;50.820;4.336;2022-08-25T04:18:56;9.13;;;3.47;;
23519;SDS011;11936;50.820;4.336;2022-08-25T04:21:24;8.47;;;3.37;;
23519;SDS011;11936;50.820;4.336;2022-08-25T04:23:50;8.02;;;2.92;;
23519;SDS011;11936;50.820;4.336;2022-08-25T04:26:21;5.93;;;3.00;;
23519;SDS011;11936;50.820;4.336;2022-08-25T04:28:52;5.15;;;2.80;;
23519;SDS011;11936;50.820;4.336;2022-08-25T04:31:19;7.60;;;2.90;;
23519;SDS011;11936;50.820;4.336;2022-08-25T04:33:46;10.90;;;3.95;;
23519;SDS011;11936;50.820;4.336;2022-08-25T04:36:12;12.65;;;4.45;;
23519;SDS011;11936;50.820;4.336;2022-08-25T04:38:39;6.60;;;3.40;;
23519;SDS011;11936;50.820;4.336;2022-08-25T04:41:06;8.75;;;3.60;;
23519;SDS011;11936;50.820;4.336;2022-08-25T04:43:33;9.93;;;4.72;;
23519;SDS011;11936;50.820;4.336;2022-08-25T04:46:03;7.85;;;4.82;;
23519;SDS011;11936;50.820;4.336;2022-08-25T04:48:30;9.73;;;5.28;;
23519;SDS011;11936;50.820;4.336;2022-08-25T04:50:56;9.15;;;4.78;;
23519;SDS011;11936;50.820;4.336;2022-08-25T04:53:22;11.45;;;5.22;;
23519;SDS011;11936;50.820;4.336;2022-08-25T04:55:48;10.32;;;5.70;;
23519;SDS011;11936;50.820;4.336;2022-08-25T04:58:14;8.40;;;4.65;;
23519;SDS011;11936;50.820;4.336;2022-08-25T05:00:40;15.77;;;5.07;;
23519;SDS011;11936;50.820;4.336;2022-08-25T05:03:07;9.02;;;4.68;;
23519;SDS011;11936;50.820;4.336;2022-08-25T05:05:36;9.57;;;4.40;;
23519;SDS011;11936;50.820;4.336;2022-08-25T05:08:03;11.05;;;4.03;;
23519;SDS011;11936;50.820;4.336;2022-08-25T05:10:29;10.02;;;4.18;;
23519;SDS011;11936;50.820;4.336;2022-08-25T05:12:55;10.00;;;4.43;;
23519;SDS011;11936;50.820;4.336;2022-08-25T05:15:21;7.97;;;3.83;;
23519;SDS011;11936;50.820;4.336;2022-08-25T05:18:05;6.10;;;3.10;;
23519;SDS011;11936;50.820;4.336;2022-08-25T05:20:30;6.75;;;2.97;;
23519;SDS011;11936;50.820;4.336;2022-08-25T05:22:56;6.18;;;3.53;;
23519;SDS011;11936;50.820;4.336;2022-08-25T05:25:23;8.35;;;3.42;;
23519;SDS011;11936;50.820;4.336;2022-08-25T05:27:49;6.07;;;3.30;;
23519;SDS011;11936;50.820;4.336;2022-08-25T05:30:14;8.32;;;3.42;;
23519;SDS011;11936;50.820;4.336;2022-08-25T05:32:40;14.48;;;4.90;;
23519;SDS011;11936;50.820;4.336;2022-08-25T05:35:06;8.93;;;4.47;;
23519;SDS011;11936;50.820;4.336;2022-08-25T05:37:32;9.02;;;3.55;;
23519;SDS011;11936;50.820;4.336;2022-08-25T05:39:59;9.75;;;3.60;;
23519;SDS011;11936;50.820;4.336;2022-08-25T05:42:25;12.00;;;3.47;;
23519;SDS011;11936;50.820;4.336;2022-08-25T05:44:52;6.20;;;3.10;;
23519;SDS011;11936;50.820;4.336;2022-08-25T05:47:18;11.15;;;3.08;;
23519;SDS011;11936;50.820;4.336;2022-08-25T05:49:43;8.15;;;3.58;;
23519;SDS011;11936;50.820;4.336;2022-08-25T05:52:09;10.90;;;3.05;;
23519;SDS011;11936;50.820;4.336;2022-08-25T05:54:38;12.13;;;3.28;;
23519;SDS011;11936;50.820;4.336;2022-08-25T05:57:04;9.10;;;3.30;;
23519;SDS011;11936;50.820;4.336;2022-08-25T05:59:30;9.07;;;3.63;;
23519;SDS011;11936;50.820;4.336;2022-08-25T06:01:56;11.95;;;3.90;;
23519;SDS011;11936;50.820;4.336;2022-08-25T06:04:40;6.88;;;3.33;;
23519;SDS011;11936;50.820;4.336;2022-08-25T06:07:05;6.40;;;3.00;;
23519;SDS011;11936;50.820;4.336;2022-08-25T06:09:31;10.55;;;3.47;;
23519;SDS011;11936;50.820;4.336;2022-08-25T06:11:57;8.63;;;3.30;;
23519;SDS011;11936;50.820;4.336;2022-08-25T06:14:23;7.30;;;2.70;;
23519;SDS011;11936;50.820;4.336;2022-08-25T06:16:49;7.50;;;3.13;;
23519;SDS011;11936;50.820;4.336;2022-08-25T06:19:15;12.55;;;3.35;;
23519;SDS011;11936;50.820;4.336;2022-08-25T06:21:42;18.90;;;3.50;;
23519;SDS011;11936;50.820;4.336;2022-08-25T06:24:08;13.60;;;3.90;;
23519;SDS011;11936;50.820;4.336;2022-08-25T06:26:35;21.77;;;4.05;;
23519;SDS011;11936;50.820;4.336;2022-08-25T06:29:01;26.13;;;4.97;;
23519;SDS011;11936;50.820;4.336;2022-08-25T06:31:27;37.60;;;5.90;;
23519;SDS011;11936;50.820;4.336;2022-08-25T06:33:53;31.33;;;5.65;;
23519;SDS011;11936;50.820;4.336;2022-08-25T06:36:19;21.85;;;4.63;;
23519;SDS011;11936;50.820;4.336;2022-08-25T06:38:45;17.10;;;3.90;;
23519;SDS011;11936;50.820;4.336;2022-08-25T06:41:11;15.23;;;4.05;;
23519;SDS011;11936;50.820;4.336;2022-08-25T06:43:38;12.23;;;3.88;;
23519;SDS011;11936;50.820;4.336;2022-08-25T06:46:12;14.77;;;3.80;;
23519;SDS011;11936;50.820;4.336;2022-08-25T06:48:40;21.90;;;6.03;;
23519;SDS011;11936;50.820;4.336;2022-08-25T06:51:06;18.17;;;4.45;;
23519;SDS011;11936;50.820;4.336;2022-08-25T06:53:33;15.10;;;5.30;;
23519;SDS011;11936;50.820;4.336;2022-08-25T06:56:00;15.10;;;4.13;;
23519;SDS011;11936;50.820;4.336;2022-08-25T06:58:26;12.02;;;4.50;;
23519;SDS011;11936;50.820;4.336;2022-08-25T07:00:52;11.73;;;4.22;;
23519;SDS011;11936;50.820;4.336;2022-08-25T07:03:18;11.55;;;4.55;;
23519;SDS011;11936;50.820;4.336;2022-08-25T07:05:53;12.05;;;4.25;;
23519;SDS011;11936;50.820;4.336;2022-08-25T07:08:20;9.75;;;4.28;;
23519;SDS011;11936;50.820;4.336;2022-08-25T07:10:47;14.68;;;4.50;;
23519;SDS011;11936;50.820;4.336;2022-08-25T07:13:13;20.52;;;4.35;;
23519;SDS011;11936;50.820;4.336;2022-08-25T07:15:40;15.85;;;5.00;;
23519;SDS011;11936;50.820;4.336;2022-08-25T07:18:06;15.93;;;3.38;;
23519;SDS011;11936;50.820;4.336;2022-08-25T07:20:33;7.70;;;2.88;;
23519;SDS011;11936;50.820;4.336;2022-08-25T07:22:59;13.18;;;3.75;;
23519;SDS011;11936;50.820;4.336;2022-08-25T07:25:25;8.00;;;3.33;;
23519;SDS011;11936;50.820;4.336;2022-08-25T07:27:51;10.52;;;2.67;;
23519;SDS011;11936;50.820;4.336;2022-08-25T07:30:16;9.43;;;2.92;;
23519;SDS011;11936;50.820;4.336;2022-08-25T07:32:42;9.43;;;3.15;;
23519;SDS011;11936;50.820;4.336;2022-08-25T07:35:08;9.13;;;3.22;;
23519;SDS011;11936;50.820;4.336;2022-08-25T07:37:44;8.60;;;3.58;;
23519;SDS011;11936;50.820;4.336;2022-08-25T07:40:18;6.97;;;3.13;;
23519;SDS011;11936;50.820;4.336;2022-08-25T07:42:53;8.80;;;3.17;;
23519;SDS011;11936;50.820;4.336;2022-08-25T07:45:21;8.63;;;2.97;;
23519;SDS011;11936;50.820;4.336;2022-08-25T07:48:10;6.30;;;3.00;;
23519;SDS011;11936;50.820;4.336;2022-08-25T07:50:37;6.18;;;3.03;;
23519;SDS011;11936;50.820;4.336;2022-08-25T07:53:06;10.75;;;3.67;;
23519;SDS011;11936;50.820;4.336;2022-08-25T07:55:33;18.10;;;3.20;;
23519;SDS011;11936;50.820;4.336;2022-08-25T07:58:00;7.93;;;3.22;;
23519;SDS011;11936;50.820;4.336;2022-08-25T08:00:28;9.50;;;2.95;;
23519;SDS011;11936;50.820;4.336;2022-08-25T08:02:56;11.45;;;3.38;;
23519;SDS011;11936;50.820;4.336;2022-08-25T08:05:23;7.43;;;2.70;;
23519;SDS011;11936;50.820;4.336;2022-08-25T08:07:49;9.60;;;3.17;;
23519;SDS011;11936;50.820;4.336;2022-08-25T08:10:16;9.85;;;2.67;;
23519;SDS011;11936;50.820;4.336;2022-08-25T08:12:42;18.13;;;3.35;;
23519;SDS011;11936;50.820;4.336;2022-08-25T08:15:08;13.23;;;3.47;;
23519;SDS011;11936;50.820;4.336;2022-08-25T08:17:34;13.63;;;3.35;;
23519;SDS011;11936;50.820;4.336;2022-08-25T08:20:00;11.32;;;3.17;;
23519;SDS011;11936;50.820;4.336;2022-08-25T08:24:54;7.35;;;3.10;;
23519;SDS011;11936;50.820;4.336;2022-08-25T08:27:19;12.70;;;2.72;;
23519;SDS011;11936;50.820;4.336;2022-08-25T08:29:45;12.07;;;2.85;;
23519;SDS011;11936;50.820;4.336;2022-08-25T08:32:11;11.73;;;3.05;;
23519;SDS011;11936;50.820;4.336;2022-08-25T08:34:38;5.63;;;2.70;;
23519;SDS011;11936;50.820;4.336;2022-08-25T08:37:05;3.05;;;2.33;;
23519;SDS011;11936;50.820;4.336;2022-08-25T08:39:31;8.43;;;2.80;;
23519;SDS011;11936;50.820;4.336;2022-08-25T08:42:00;10.07;;;2.90;;
23519;SDS011;11936;50.820;4.336;2022-08-25T08:47:31;10.52;;;2.92;;
23519;SDS011;11936;50.820;4.336;2022-08-25T08:50:05;5.82;;;2.90;;
23519;SDS011;11936;50.820;4.336;2022-08-25T08:52:58;4.78;;;2.85;;
23519;SDS011;11936;50.820;4.336;2022-08-25T08:55:37;3.28;;;2.35;;
23519;SDS011;11936;50.820;4.336;2022-08-25T09:00:48;5.20;;;2.30;;
23519;SDS011;11936;50.820;4.336;2022-08-25T09:03:32;7.45;;;2.92;;
23519;SDS011;11936;50.820;4.336;2022-08-25T09:06:11;5.53;;;2.42;;
23519;SDS011;11936;50.820;4.336;2022-08-25T09:08:42;6.03;;;2.20;;
23519;SDS011;11936;50.820;4.336;2022-08-25T09:11:22;8.60;;;2.63;;
23519;SDS011;11936;50.820;4.336;2022-08-25T09:14:24;7.40;;;2.55;;
23519;SDS011;11936;50.820;4.336;2022-08-25T09:16:54;5.55;;;2.50;;
23519;SDS011;11936;50.820;4.336;2022-08-25T09:22:09;10.25;;;2.55;;
23519;SDS011;11936;50.820;4.336;2022-08-25T09:30:17;5.75;;;2.50;;
23519;SDS011;11936;50.820;4.336;2022-08-25T09:35:25;6.07;;;2.25;;
23519;SDS011;11936;50.820;4.336;2022-08-25T09:38:11;3.45;;;2.25;;
23519;SDS011;11936;50.820;4.336;2022-08-25T09:40:48;5.28;;;2.70;;
23519;SDS011;11936;50.820;4.336;2022-08-25T09:43:20;4.53;;;2.20;;
23519;SDS011;11936;50.820;4.336;2022-08-25T09:45:49;11.07;;;2.30;;
23519;SDS011;11936;50.820;4.336;2022-08-25T09:48:23;7.57;;;2.30;;
23519;SDS011;11936;50.820;4.336;2022-08-25T09:50:53;2.63;;;2.28;;
23519;SDS011;11936;50.820;4.336;2022-08-25T09:53:23;8.93;;;2.15;;
23519;SDS011;11936;50.820;4.336;2022-08-25T09:55:56;6.18;;;2.30;;
23519;SDS011;11936;50.820;4.336;2022-08-25T09:58:28;5.63;;;2.20;;
23519;SDS011;11936;50.820;4.336;2022-08-25T10:01:11;5.43;;;2.10;;
23519;SDS011;11936;50.820;4.336;2022-08-25T10:03:55;4.63;;;1.90;;
23519;SDS011;11936;50.820;4.336;2022-08-25T10:06:49;4.53;;;2.15;;
23519;SDS011;11936;50.820;4.336;2022-08-25T10:09:22;3.95;;;2.00;;
23519;SDS011;11936;50.820;4.336;2022-08-25T10:11:59;3.75;;;2.30;;
23519;SDS011;11936;50.820;4.336;2022-08-25T10:19:36;5.97;;;2.15;;
23519;SDS011;11936;50.820;4.336;2022-08-25T10:22:04;4.10;;;2.17;;
23519;SDS011;11936;50.820;4.336;2022-08-25T10:24:34;5.00;;;2.22;;
23519;SDS011;11936;50.820;4.336;2022-08-25T10:34:48;4.32;;;2.13;;
23519;SDS011;11936;50.820;4.336;2022-08-25T10:40:24;9.40;;;2.72;;
23519;SDS011;11936;50.820;4.336;2022-08-25T10:42:59;5.75;;;2.40;;
23519;SDS011;11936;50.820;4.336;2022-08-25T10:45:48;2.70;;;2.17;;
23519;SDS011;11936;50.820;4.336;2022-08-25T10:51:05;5.30;;;2.33;;
23519;SDS011;11936;50.820;4.336;2022-08-25T11:04:52;5.18;;;2.30;;
23519;SDS011;11936;50.820;4.336;2022-08-25T11:07:38;4.75;;;2.33;;
23519;SDS011;11936;50.820;4.336;2022-08-25T11:10:10;5.90;;;2.25;;
23519;SDS011;11936;50.820;4.336;2022-08-25T11:12:42;3.53;;;2.33;;
23519;SDS011;11936;50.820;4.336;2022-08-25T11:15:20;4.88;;;1.92;;
23519;SDS011;11936;50.820;4.336;2022-08-25T11:17:54;21.00;;;5.68;;
23519;SDS011;11936;50.820;4.336;2022-08-25T11:20:25;7.85;;;3.83;;
23519;SDS011;11936;50.820;4.336;2022-08-25T11:25:42;4.63;;;2.75;;
23519;SDS011;11936;50.820;4.336;2022-08-25T11:30:35;4.13;;;2.50;;
23519;SDS011;11936;50.820;4.336;2022-08-25T11:33:02;11.35;;;2.97;;
23519;SDS011;11936;50.820;4.336;2022-08-25T11:35:49;9.60;;;2.58;;
23519;SDS011;11936;50.820;4.336;2022-08-25T11:44:06;5.55;;;2.47;;
23519;SDS011;11936;50.820;4.336;2022-08-25T11:47:03;5.05;;;2.00;;
23519;SDS011;11936;50.820;4.336;2022-08-25T11:58:22;7.32;;;2.60;;
23519;SDS011;11936;50.820;4.336;2022-08-25T12:00:58;4.50;;;2.72;;
23519;SDS011;11936;50.820;4.336;2022-08-25T12:08:52;6.80;;;2.40;;
23519;SDS011;11936;50.820;4.336;2022-08-25T12:27:10;23.77;;;4.03;;
23519;SDS011;11936;50.820;4.336;2022-08-25T12:37:53;3.00;;;2.03;;
23519;SDS011;11936;50.820;4.336;2022-08-25T12:43:10;4.63;;;2.33;;
23519;SDS011;11936;50.820;4.336;2022-08-25T12:45:47;7.57;;;2.85;;
23519;SDS011;11936;50.820;4.336;2022-08-25T12:50:55;6.30;;;2.50;;
23519;SDS011;11936;50.820;4.336;2022-08-25T12:56:04;5.80;;;2.70;;
23519;SDS011;11936;50.820;4.336;2022-08-25T13:04:17;8.35;;;2.50;;
23519;SDS011;11936;50.820;4.336;2022-08-25T13:12:39;3.92;;;2.38;;
23519;SDS011;11936;50.820;4.336;2022-08-25T13:15:14;3.22;;;2.17;;
23519;SDS011;11936;50.820;4.336;2022-08-25T13:18:11;9.60;;;2.53;;
23519;SDS011;11936;50.820;4.336;2022-08-25T13:20:38;7.22;;;2.63;;
23519;SDS011;11936;50.820;4.336;2022-08-25T13:23:04;5.22;;;2.30;;
23519;SDS011;11936;50.820;4.336;2022-08-25T13:25:29;6.70;;;2.63;;
23519;SDS011;11936;50.820;4.336;2022-08-25T13:27:57;4.60;;;2.50;;
23519;SDS011;11936;50.820;4.336;2022-08-25T13:30:35;8.32;;;2.90;;
23519;SDS011;11936;50.820;4.336;2022-08-25T13:33:20;5.90;;;2.65;;
23519;SDS011;11936;50.820;4.336;2022-08-25T13:35:52;10.63;;;2.55;;
23519;SDS011;11936;50.820;4.336;2022-08-25T13:38:39;8.90;;;2.75;;
23519;SDS011;11936;50.820;4.336;2022-08-25T13:41:07;4.43;;;2.38;;
23519;SDS011;11936;50.820;4.336;2022-08-25T13:43:33;8.48;;;2.78;;
23519;SDS011;11936;50.820;4.336;2022-08-25T13:46:00;4.28;;;2.22;;
23519;SDS011;11936;50.820;4.336;2022-08-25T13:48:36;5.82;;;2.65;;
23519;SDS011;11936;50.820;4.336;2022-08-25T13:51:08;6.25;;;2.20;;
23519;SDS011;11936;50.820;4.336;2022-08-25T13:53:46;6.95;;;2.45;;
23519;SDS011;11936;50.820;4.336;2022-08-25T13:56:24;2.88;;;2.20;;
23519;SDS011;11936;50.820;4.336;2022-08-25T13:58:55;3.70;;;2.50;;
23519;SDS011;11936;50.820;4.336;2022-08-25T14:01:24;5.65;;;2.40;;
23519;SDS011;11936;50.820;4.336;2022-08-25T14:04:18;10.38;;;3.47;;
23519;SDS011;11936;50.820;4.336;2022-08-25T14:06:47;10.40;;;5.50;;
23519;SDS011;11936;50.820;4.336;2022-08-25T14:09:15;13.32;;;5.03;;
23519;SDS011;11936;50.820;4.336;2022-08-25T14:11:46;15.18;;;4.95;;
23519;SDS011;11936;50.820;4.336;2022-08-25T14:16:50;12.27;;;4.88;;
23519;SDS011;11936;50.820;4.336;2022-08-25T14:19:23;13.20;;;5.47;;
23519;SDS011;11936;50.820;4.336;2022-08-25T14:21:50;15.20;;;5.20;;
23519;SDS011;11936;50.820;4.336;2022-08-25T14:24:17;12.38;;;4.88;;
23519;SDS011;11936;50.820;4.336;2022-08-25T14:26:45;14.60;;;5.15;;
23519;SDS011;11936;50.820;4.336;2022-08-25T14:29:11;15.40;;;4.45;;
23519;SDS011;11936;50.820;4.336;2022-08-25T14:31:38;17.50;;;4.88;;
23519;SDS011;11936;50.820;4.336;2022-08-25T14:36:50;12.85;;;5.03;;
23519;SDS011;11936;50.820;4.336;2022-08-25T14:39:16;11.93;;;4.63;;
23519;SDS011;11936;50.820;4.336;2022-08-25T14:41:42;9.48;;;5.47;;
23519;SDS011;11936;50.820;4.336;2022-08-25T14:44:10;12.65;;;4.80;;
23519;SDS011;11936;50.820;4.336;2022-08-25T14:46:58;11.48;;;4.80;;
23519;SDS011;11936;50.820;4.336;2022-08-25T14:49:25;9.40;;;5.10;;
23519;SDS011;11936;50.820;4.336;2022-08-25T14:51:56;14.48;;;5.38;;
23519;SDS011;11936;50.820;4.336;2022-08-25T14:54:28;16.08;;;4.82;;
23519;SDS011;11936;50.820;4.336;2022-08-25T14:56:54;10.95;;;4.70;;
23519;SDS011;11936;50.820;4.336;2022-08-25T14:59:21;11.32;;;4.55;;
23519;SDS011;11936;50.820;4.336;2022-08-25T15:01:47;12.27;;;4.28;;
23519;SDS011;11936;50.820;4.336;2022-08-25T15:04:13;11.65;;;4.28;;
23519;SDS011;11936;50.820;4.336;2022-08-25T15:06:42;13.60;;;5.10;;
23519;SDS011;11936;50.820;4.336;2022-08-25T15:09:12;9.75;;;4.75;;
23519;SDS011;11936;50.820;4.336;2022-08-25T15:11:44;11.15;;;5.05;;
23519;SDS011;11936;50.820;4.336;2022-08-25T15:14:14;17.35;;;5.30;;
23519;SDS011;11936;50.820;4.336;2022-08-25T15:19:10;18.63;;;6.50;;
23519;SDS011;11936;50.820;4.336;2022-08-25T15:21:38;12.60;;;6.13;;
23519;SDS011;11936;50.820;4.336;2022-08-25T15:24:05;16.83;;;7.80;;
23519;SDS011;11936;50.820;4.336;2022-08-25T15:26:52;16.20;;;6.93;;
23519;SDS011;11936;50.820;4.336;2022-08-25T15:29:26;21.40;;;10.77;;
23519;SDS011;11936;50.820;4.336;2022-08-25T15:31:54;21.13;;;9.70;;
23519;SDS011;11936;50.820;4.336;2022-08-25T15:34:20;16.67;;;8.48;;
23519;SDS011;11936;50.820;4.336;2022-08-25T15:36:46;18.23;;;9.98;;
23519;SDS011;11936;50.820;4.336;2022-08-25T15:39:12;15.80;;;10.75;;
23519;SDS011;11936;50.820;4.336;2022-08-25T15:41:38;20.77;;;9.60;;
23519;SDS011;11936;50.820;4.336;2022-08-25T15:44:04;16.30;;;7.93;;
23519;SDS011;11936;50.820;4.336;2022-08-25T15:46:31;14.60;;;7.73;;
23519;SDS011;11936;50.820;4.336;2022-08-25T15:48:59;15.10;;;9.02;;
23519;SDS011;11936;50.820;4.336;2022-08-25T15:51:25;15.23;;;8.73;;
23519;SDS011;11936;50.820;4.336;2022-08-25T15:53:52;13.52;;;9.40;;
23519;SDS011;11936;50.820;4.336;2022-08-25T15:56:18;15.18;;;10.93;;
23519;SDS011;11936;50.820;4.336;2022-08-25T15:58:45;24.35;;;9.75;;
23519;SDS011;11936;50.820;4.336;2022-08-25T16:01:13;18.83;;;10.70;;
23519;SDS011;11936;50.820;4.336;2022-08-25T16:03:39;14.80;;;9.60;;
23519;SDS011;11936;50.820;4.336;2022-08-25T16:06:05;16.38;;;10.05;;
23519;SDS011;11936;50.820;4.336;2022-08-25T16:08:31;21.58;;;9.55;;
23519;SDS011;11936;50.820;4.336;2022-08-25T16:10:57;14.90;;;8.70;;
23519;SDS011;11936;50.820;4.336;2022-08-25T16:13:23;20.25;;;10.63;;
23519;SDS011;11936;50.820;4.336;2022-08-25T16:15:49;17.90;;;9.80;;
23519;SDS011;11936;50.820;4.336;2022-08-25T16:18:15;17.95;;;8.68;;
23519;SDS011;11936;50.820;4.336;2022-08-25T16:20:43;17.90;;;11.88;;
23519;SDS011;11936;50.820;4.336;2022-08-25T16:23:10;23.27;;;11.25;;
23519;SDS011;11936;50.820;4.336;2022-08-25T16:25:40;14.93;;;11.68;;
23519;SDS011;11936;50.820;4.336;2022-08-25T16:28:08;19.15;;;11.48;;
23519;SDS011;11936;50.820;4.336;2022-08-25T16:30:35;16.88;;;10.55;;
23519;SDS011;11936;50.820;4.336;2022-08-25T16:33:03;31.52;;;10.30;;
23519;SDS011;11936;50.820;4.336;2022-08-25T16:35:30;16.52;;;10.23;;
23519;SDS011;11936;50.820;4.336;2022-08-25T16:37:56;17.25;;;8.20;;
23519;SDS011;11936;50.820;4.336;2022-08-25T16:40:22;17.70;;;10.80;;
23519;SDS011;11936;50.820;4.336;2022-08-25T16:42:50;20.95;;;10.77;;
23519;SDS011;11936;50.820;4.336;2022-08-25T16:45:20;21.05;;;9.68;;
23519;SDS011;11936;50.820;4.336;2022-08-25T16:47:46;19.50;;;9.63;;
23519;SDS011;11936;50.820;4.336;2022-08-25T16:50:12;14.50;;;9.10;;
23519;SDS011;11936;50.820;4.336;2022-08-25T16:52:39;16.40;;;9.60;;
23519;SDS011;11936;50.820;4.336;2022-08-25T16:55:23;15.05;;;10.63;;
23519;SDS011;11936;50.820;4.336;2022-08-25T16:57:50;24.45;;;12.63;;
23519;SDS011;11936;50.820;4.336;2022-08-25T17:00:22;34.00;;;14.05;;
23519;SDS011;11936;50.820;4.336;2022-08-25T17:02:49;28.80;;;11.30;;
23519;SDS011;11936;50.820;4.336;2022-08-25T17:05:23;24.25;;;12.55;;
23519;SDS011;11936;50.820;4.336;2022-08-25T17:07:49;27.83;;;14.25;;
23519;SDS011;11936;50.820;4.336;2022-08-25T17:10:34;24.00;;;14.25;;
23519;SDS011;11936;50.820;4.336;2022-08-25T17:13:01;26.52;;;14.05;;
23519;SDS011;11936;50.820;4.336;2022-08-25T17:15:27;25.38;;;14.25;;
23519;SDS011;11936;50.820;4.336;2022-08-25T17:17:52;23.42;;;13.38;;
23519;SDS011;11936;50.820;4.336;2022-08-25T17:20:18;19.98;;;13.63;;
23519;SDS011;11936;50.820;4.336;2022-08-25T17:22:43;27.67;;;13.10;;